createdAt,value
2023-05-07T00:00:16.752Z,13.40
2023-05-07T00:03:05.562Z,13.30
2023-05-07T00:06:27.155Z,15.30
2023-05-07T00:09:22.789Z,13.50
2023-05-07T00:12:12.065Z,13.50
2023-05-07T00:15:03.998Z,13.50
2023-05-07T00:18:02.857Z,13.40
2023-05-07T00:20:50.415Z,13.40
2023-05-07T00:23:38.122Z,13.40
2023-05-07T00:26:45.654Z,13.70
2023-05-07T00:29:33.757Z,13.40
2023-05-07T00:32:37.897Z,13.40
2023-05-07T00:35:35.017Z,13.40
2023-05-07T00:38:25.310Z,13.30
2023-05-07T00:41:25.121Z,13.50
2023-05-07T00:44:13.185Z,13.70
2023-05-07T00:47:00.763Z,13.90
2023-05-07T00:49:49.817Z,13.40
2023-05-07T00:52:37.522Z,13.30
2023-05-07T00:55:26.002Z,13.40
2023-05-07T00:58:13.348Z,13.30
2023-05-07T01:01:00.664Z,13.30
2023-05-07T01:03:53.416Z,13.30
2023-05-07T01:06:44.018Z,13.20
2023-05-07T01:09:32.328Z,13.20
2023-05-07T01:12:20.092Z,13.20
2023-05-07T01:15:08.597Z,13.20
2023-05-07T01:17:56.764Z,13.10
2023-05-07T01:20:51.157Z,13.30
2023-05-07T01:23:44.027Z,13.30
2023-05-07T01:26:32.234Z,13.40
2023-05-07T01:29:20.042Z,14.00
2023-05-07T01:32:08.736Z,13.30
2023-05-07T01:34:56.981Z,13.40
2023-05-07T01:37:44.378Z,13.40
2023-05-07T01:40:33.674Z,13.50
2023-05-07T01:43:21.411Z,13.40
2023-05-07T01:46:09.353Z,13.50
2023-05-07T01:48:56.961Z,15.90
2023-05-07T01:51:45.431Z,13.30
2023-05-07T01:54:33.074Z,13.30
2023-05-07T01:57:23.246Z,13.30
2023-05-07T02:00:14.628Z,14.20
2023-05-07T02:03:06.027Z,13.30
2023-05-07T02:06:03.981Z,13.30
2023-05-07T02:09:00.950Z,13.80
2023-05-07T02:11:49.466Z,11.40
2023-05-07T02:14:40.254Z,13.30
2023-05-07T02:17:34.261Z,13.20
2023-05-07T02:20:22.144Z,13.20
2023-05-07T02:23:10.029Z,13.50
2023-05-07T02:25:57.739Z,13.30
2023-05-07T02:28:45.549Z,13.30
2023-05-07T02:31:35.760Z,13.30
2023-05-07T02:34:23.676Z,15.80
2023-05-07T02:37:11.403Z,13.30
2023-05-07T02:39:59.540Z,12.50
2023-05-07T02:42:49.868Z,14.00
2023-05-07T02:45:38.809Z,13.50
2023-05-07T02:48:29.641Z,16.20
2023-05-07T02:51:17.511Z,13.40
2023-05-07T02:54:05.069Z,13.40
2023-05-07T02:56:53.832Z,11.90
2023-05-07T02:59:41.688Z,13.40
2023-05-07T03:02:30.064Z,13.40
2023-05-07T03:05:19.696Z,13.30
2023-05-07T03:08:07.478Z,13.40
2023-05-07T03:10:55.458Z,13.40
2023-05-07T03:13:43.222Z,13.40
2023-05-07T03:16:30.680Z,13.30
2023-05-07T03:19:18.477Z,13.40
2023-05-07T03:22:07.589Z,13.60
2023-05-07T03:24:54.955Z,13.20
2023-05-07T03:27:43.106Z,13.40
2023-05-07T03:30:33.311Z,13.30
2023-05-07T03:33:23.491Z,13.50
2023-05-07T03:36:11.269Z,13.30
2023-05-07T03:39:00.446Z,13.30
2023-05-07T03:41:56.301Z,13.30
2023-05-07T03:44:44.237Z,13.20
2023-05-07T03:47:32.094Z,13.20
2023-05-07T03:50:22.916Z,13.20
2023-05-07T03:53:10.824Z,13.20
2023-05-07T03:56:02.023Z,13.70
2023-05-07T03:58:53.367Z,13.20
2023-05-07T04:01:43.529Z,13.20
2023-05-07T04:04:37.573Z,13.20
2023-05-07T04:07:25.404Z,13.60
2023-05-07T04:10:14.717Z,13.10
2023-05-07T04:13:06.293Z,13.60
2023-05-07T04:15:54.471Z,14.00
2023-05-07T04:18:42.080Z,13.10
2023-05-07T04:21:29.876Z,13.10
2023-05-07T04:24:19.176Z,13.10
2023-05-07T04:27:07.606Z,12.90
2023-05-07T04:29:59.042Z,13.90
2023-05-07T04:32:47.250Z,13.20
2023-05-07T04:35:35.355Z,13.20
2023-05-07T04:38:24.743Z,13.20
2023-05-07T04:41:15.237Z,11.20
2023-05-07T04:44:05.382Z,13.30
2023-05-07T04:46:57.473Z,14.00
2023-05-07T04:49:45.957Z,13.30
2023-05-07T04:52:33.541Z,13.40
2023-05-07T04:55:21.199Z,13.40
2023-05-07T04:58:13.907Z,13.70
2023-05-07T05:01:03.695Z,14.60
2023-05-07T05:03:54.249Z,13.50
2023-05-07T05:06:42.894Z,13.60
2023-05-07T05:09:35.531Z,13.60
2023-05-07T05:12:29.569Z,14.00
2023-05-07T05:15:17.425Z,13.70
2023-05-07T05:18:05.285Z,14.70
2023-05-07T05:20:55.177Z,15.40
2023-05-07T05:23:45.098Z,14.00
2023-05-07T05:26:35.780Z,14.10
2023-05-07T05:29:23.668Z,14.10
2023-05-07T05:32:11.379Z,16.30
2023-05-07T05:34:59.467Z,15.70
2023-05-07T05:37:49.798Z,15.20
2023-05-07T05:40:39.192Z,14.50
2023-05-07T05:43:26.780Z,14.60
2023-05-07T05:46:14.499Z,14.60
2023-05-07T05:49:02.194Z,14.70
2023-05-07T05:51:50.336Z,15.10
2023-05-07T05:54:39.728Z,14.80
2023-05-07T05:57:31.528Z,14.80
2023-05-07T06:00:20.095Z,14.80
2023-05-07T06:03:18.698Z,14.80
2023-05-07T06:06:06.710Z,14.90
2023-05-07T06:08:55.285Z,15.00
2023-05-07T06:11:53.567Z,15.10
2023-05-07T06:14:42.020Z,14.80
2023-05-07T06:17:29.760Z,15.30
2023-05-07T06:20:17.544Z,15.20
2023-05-07T06:23:07.935Z,15.20
2023-05-07T06:25:56.061Z,15.20
2023-05-07T06:28:49.998Z,15.30
2023-05-07T06:31:41.029Z,15.30
2023-05-07T06:34:32.102Z,15.50
2023-05-07T06:37:20.029Z,13.70
2023-05-07T06:40:16.993Z,15.60
2023-05-07T06:43:05.647Z,16.50
2023-05-07T06:46:05.577Z,15.50
2023-05-07T06:48:55.835Z,15.50
2023-05-07T06:51:43.981Z,15.40
2023-05-07T06:54:31.638Z,15.40
2023-05-07T06:57:19.973Z,15.30
2023-05-07T07:00:10.447Z,15.30
2023-05-07T07:03:08.561Z,15.70
2023-05-07T07:05:58.453Z,14.50
2023-05-07T07:08:46.204Z,15.40
2023-05-07T07:11:38.227Z,15.50
2023-05-07T07:14:26.771Z,15.50
2023-05-07T07:17:15.638Z,15.60
2023-05-07T07:20:11.981Z,15.80
2023-05-07T07:23:06.986Z,15.90
2023-05-07T07:25:54.963Z,15.90
2023-05-07T07:28:50.117Z,16.00
2023-05-07T07:31:41.012Z,16.10
2023-05-07T07:34:28.518Z,15.80
2023-05-07T07:37:18.084Z,16.80
2023-05-07T07:40:08.175Z,16.10
2023-05-07T07:42:59.986Z,16.20
2023-05-07T07:45:48.270Z,16.60
2023-05-07T07:48:39.183Z,16.40
2023-05-07T07:51:28.155Z,16.60
2023-05-07T07:54:18.420Z,16.30
2023-05-07T07:57:06.407Z,18.80
2023-05-07T07:59:57.686Z,16.30
2023-05-07T08:02:45.539Z,16.30
2023-05-07T08:05:41.259Z,16.50
2023-05-07T08:08:30.814Z,16.80
2023-05-07T08:11:21.136Z,18.70
2023-05-07T08:14:17.991Z,16.50
2023-05-07T08:17:11.357Z,17.00
2023-05-07T08:20:02.243Z,15.40
2023-05-07T08:22:51.257Z,17.10
2023-05-07T08:25:43.807Z,16.90
2023-05-07T08:28:35.414Z,17.00
2023-05-07T08:31:24.685Z,16.90
2023-05-07T08:34:16.030Z,17.20
2023-05-07T08:37:11.298Z,18.20
2023-05-07T08:39:59.382Z,17.30
2023-05-07T08:42:52.756Z,17.30
2023-05-07T08:46:07.498Z,19.10
2023-05-07T08:49:01.306Z,17.60
2023-05-07T08:51:49.296Z,17.50
2023-05-07T08:54:41.863Z,17.40
2023-05-07T08:57:31.383Z,17.60
2023-05-07T09:00:19.557Z,17.20
2023-05-07T09:03:13.724Z,17.70
2023-05-07T09:06:06.465Z,17.70
2023-05-07T09:08:55.565Z,17.00
2023-05-07T09:11:46.864Z,17.20
2023-05-07T09:14:36.996Z,16.90
2023-05-07T09:17:27.647Z,17.00
2023-05-07T09:20:25.487Z,18.50
2023-05-07T09:23:15.265Z,16.60
2023-05-07T09:26:10.078Z,16.90
2023-05-07T09:29:00.920Z,16.60
2023-05-07T09:31:55.593Z,16.50
2023-05-07T09:34:46.596Z,16.40
2023-05-07T09:37:36.597Z,14.30
2023-05-07T09:40:26.667Z,15.90
2023-05-07T09:43:15.750Z,16.50
2023-05-07T09:46:18.059Z,16.50
2023-05-07T09:49:21.036Z,16.50
2023-05-07T09:52:14.725Z,16.50
2023-05-07T09:55:12.123Z,18.60
2023-05-07T09:58:05.539Z,16.70
2023-05-07T10:00:53.865Z,16.80
2023-05-07T10:03:43.912Z,16.50
2023-05-07T10:06:35.392Z,16.60
2023-05-07T10:09:23.307Z,16.50
2023-05-07T10:12:12.069Z,18.50
2023-05-07T10:15:02.187Z,16.70
2023-05-07T10:17:53.134Z,16.60
2023-05-07T10:20:46.159Z,16.60
2023-05-07T10:23:47.598Z,16.60
2023-05-07T10:26:36.444Z,16.70
2023-05-07T10:29:36.398Z,16.70
2023-05-07T10:32:37.975Z,19.10
2023-05-07T10:35:29.693Z,18.10
2023-05-07T10:38:22.275Z,16.50
2023-05-07T10:41:19.915Z,16.60
2023-05-07T10:44:34.533Z,18.50
2023-05-07T10:47:27.627Z,16.60
2023-05-07T10:50:25.426Z,17.80
2023-05-07T10:53:31.905Z,16.70
2023-05-07T10:56:31.984Z,16.70
2023-05-07T10:59:37.065Z,16.70
2023-05-07T11:02:49.476Z,16.90
2023-05-07T11:05:39.784Z,16.70
2023-05-07T11:08:56.033Z,16.80
2023-05-07T11:11:52.434Z,17.30
2023-05-07T11:15:03.714Z,16.80
2023-05-07T11:17:56.153Z,17.70
2023-05-07T11:21:02.469Z,16.80
2023-05-07T11:24:13.253Z,17.60
2023-05-07T11:27:25.827Z,17.10
2023-05-07T11:30:21.827Z,14.50
2023-05-07T11:33:28.151Z,17.40
2023-05-07T11:43:58.101Z,18.20
2023-05-07T11:46:47.358Z,17.40
2023-05-07T11:49:37.128Z,16.80
2023-05-07T11:52:26.323Z,17.70
2023-05-07T11:55:15.845Z,16.90
2023-05-07T11:58:03.660Z,16.80
2023-05-07T12:00:52.713Z,17.40
2023-05-07T12:03:44.039Z,17.30
2023-05-07T12:06:32.126Z,17.00
2023-05-07T12:09:20.115Z,17.20
2023-05-07T12:12:09.486Z,17.60
2023-05-07T12:14:59.043Z,17.70
2023-05-07T12:18:07.582Z,17.70
2023-05-07T12:20:55.148Z,17.90
2023-05-07T12:23:42.856Z,18.10
2023-05-07T12:26:30.692Z,18.00
2023-05-07T12:29:19.476Z,18.60
2023-05-07T12:32:08.173Z,18.10
2023-05-07T12:34:56.784Z,18.00
2023-05-07T12:37:45.954Z,17.90
2023-05-07T12:40:38.238Z,17.90
2023-05-07T12:43:27.629Z,17.90
2023-05-07T12:46:19.852Z,17.80
2023-05-07T12:49:07.383Z,17.80
2023-05-07T12:51:56.519Z,17.50
2023-05-07T12:54:44.088Z,17.70
2023-05-07T12:57:35.143Z,17.80
2023-05-07T13:00:34.954Z,18.60
2023-05-07T13:03:31.284Z,18.50
2023-05-07T13:06:19.695Z,18.10
2023-05-07T13:09:08.327Z,18.40
2023-05-07T13:11:57.009Z,18.10
2023-05-07T13:14:44.854Z,18.20
2023-05-07T13:17:33.331Z,18.00
2023-05-07T13:20:23.174Z,17.90
2023-05-07T13:23:14.105Z,18.40
2023-05-07T13:26:06.229Z,18.00
2023-05-07T13:28:59.493Z,17.80
2023-05-07T13:31:48.383Z,17.70
2023-05-07T13:34:38.194Z,17.80
2023-05-07T13:37:27.942Z,18.00
2023-05-07T13:40:15.661Z,17.90
2023-05-07T13:43:04.175Z,18.10
2023-05-07T13:45:51.784Z,19.20
2023-05-07T13:48:44.757Z,18.30
2023-05-07T13:51:32.632Z,18.20
2023-05-07T13:54:22.039Z,18.10
2023-05-07T13:57:09.731Z,18.10
2023-05-07T14:00:00.035Z,18.10
2023-05-07T14:02:47.569Z,17.90
2023-05-07T14:05:38.439Z,18.10
2023-05-07T14:08:26.926Z,18.20
2023-05-07T14:11:16.390Z,18.20
2023-05-07T14:14:05.204Z,18.70
2023-05-07T14:16:55.776Z,18.30
2023-05-07T14:19:43.111Z,18.20
2023-05-07T14:22:34.302Z,18.20
2023-05-07T14:25:23.171Z,17.90
2023-05-07T14:28:15.611Z,18.10
2023-05-07T14:31:10.129Z,18.00
2023-05-07T14:33:59.254Z,17.80
2023-05-07T14:36:47.071Z,17.70
2023-05-07T14:39:44.523Z,17.70
2023-05-07T14:42:40.778Z,17.70
2023-05-07T14:45:33.031Z,19.20
2023-05-07T14:48:28.191Z,17.90
2023-05-07T14:51:21.379Z,17.90
2023-05-07T14:54:09.124Z,18.00
2023-05-07T14:56:58.144Z,18.10
2023-05-07T14:59:48.192Z,18.10
2023-05-07T15:02:38.972Z,18.00
2023-05-07T15:05:30.697Z,18.00
2023-05-07T15:08:18.841Z,18.00
2023-05-07T15:11:06.874Z,18.10
2023-05-07T15:13:55.000Z,18.20
2023-05-07T15:16:43.480Z,18.20
2023-05-07T15:19:33.884Z,17.90
2023-05-07T15:22:23.250Z,17.80
2023-05-07T15:25:11.276Z,17.70
2023-05-07T15:27:59.492Z,17.70
2023-05-07T15:30:47.048Z,17.70
2023-05-07T15:33:38.243Z,17.70
2023-05-07T15:36:29.166Z,18.10
2023-05-07T15:39:17.308Z,17.80
2023-05-07T15:42:09.066Z,17.70
2023-05-07T15:44:58.102Z,15.30
2023-05-07T15:47:48.496Z,17.80
2023-05-07T15:50:37.309Z,17.80
2023-05-07T15:53:31.074Z,17.80
2023-05-07T15:56:19.964Z,17.80
2023-05-07T15:59:08.365Z,17.80
2023-05-07T16:01:58.841Z,18.60
2023-05-07T16:04:47.298Z,17.80
2023-05-07T16:07:35.344Z,17.20
2023-05-07T16:10:27.019Z,17.90
2023-05-07T16:13:14.532Z,17.80
2023-05-07T16:16:03.089Z,17.80
2023-05-07T16:18:51.666Z,18.20
2023-05-07T16:21:39.200Z,17.80
2023-05-07T16:24:26.931Z,17.90
2023-05-07T16:27:22.682Z,17.80
2023-05-07T16:30:11.002Z,17.80
2023-05-07T16:32:59.651Z,17.90
2023-05-07T16:35:52.625Z,18.10
2023-05-07T16:38:40.841Z,17.60
2023-05-07T16:41:29.062Z,18.00
2023-05-07T16:44:19.152Z,17.80
2023-05-07T16:47:08.380Z,17.60
2023-05-07T16:49:55.956Z,17.70
2023-05-07T16:52:44.522Z,17.70
2023-05-07T16:55:38.407Z,17.70
2023-05-07T16:58:30.546Z,17.60
2023-05-07T17:01:20.849Z,17.70
2023-05-07T17:04:08.982Z,19.60
2023-05-07T17:06:57.311Z,17.70
2023-05-07T17:09:47.056Z,17.40
2023-05-07T17:12:36.211Z,17.40
2023-05-07T17:15:24.029Z,17.40
2023-05-07T17:18:14.199Z,17.50
2023-05-07T17:21:02.570Z,17.30
2023-05-07T17:23:53.995Z,17.30
2023-05-07T17:26:43.430Z,17.30
2023-05-07T17:29:31.397Z,17.40
2023-05-07T17:32:22.688Z,17.50
2023-05-07T17:35:15.840Z,18.70
2023-05-07T17:38:04.302Z,17.10
2023-05-07T17:40:53.021Z,17.20
2023-05-07T17:43:48.511Z,17.10
2023-05-07T17:46:36.692Z,18.10
2023-05-07T17:49:26.588Z,14.70
2023-05-07T17:52:18.637Z,18.30
2023-05-07T17:55:08.320Z,16.80
2023-05-07T17:57:56.831Z,16.80
2023-05-07T18:01:17.326Z,16.80
2023-05-07T18:04:06.236Z,17.20
2023-05-07T18:06:57.510Z,17.00
2023-05-07T18:09:50.624Z,17.90
2023-05-07T18:12:38.841Z,17.40
2023-05-07T18:15:27.830Z,19.30
2023-05-07T18:18:16.632Z,17.10
2023-05-07T18:21:09.338Z,17.50
2023-05-07T18:23:58.842Z,16.80
2023-05-07T18:26:49.651Z,17.20
2023-05-07T18:29:41.687Z,17.00
2023-05-07T18:32:29.544Z,17.00
2023-05-07T18:35:17.684Z,16.60
2023-05-07T18:38:05.609Z,18.10
2023-05-07T18:40:56.298Z,16.80
2023-05-07T18:43:45.547Z,19.00
2023-05-07T18:46:33.327Z,16.60
2023-05-07T18:49:21.839Z,17.20
2023-05-07T18:52:09.972Z,16.40
2023-05-07T18:55:01.099Z,16.40
2023-05-07T18:57:50.171Z,16.10
2023-05-07T19:00:42.259Z,18.30
2023-05-07T19:03:30.350Z,16.20
2023-05-07T19:06:19.777Z,16.70
2023-05-07T19:09:09.736Z,16.00
2023-05-07T19:11:57.818Z,15.80
2023-05-07T19:14:46.935Z,16.00
2023-05-07T19:17:37.082Z,15.80
2023-05-07T19:20:25.087Z,15.70
2023-05-07T19:23:12.990Z,16.50
2023-05-07T19:26:01.339Z,18.00
2023-05-07T19:28:56.955Z,15.80
2023-05-07T19:31:59.659Z,14.30
2023-05-07T19:34:48.911Z,15.80
2023-05-07T19:37:36.367Z,16.10
2023-05-07T19:40:24.758Z,16.00
2023-05-07T19:43:12.857Z,15.40
2023-05-07T19:46:00.507Z,16.70
2023-05-07T19:48:47.986Z,15.20
2023-05-07T19:51:38.807Z,15.40
2023-05-07T19:54:26.936Z,15.30
2023-05-07T19:57:15.614Z,15.30
2023-05-07T20:00:04.001Z,15.30
2023-05-07T20:03:01.084Z,15.30
2023-05-07T20:05:50.676Z,15.30
2023-05-07T20:08:39.754Z,15.30
2023-05-07T20:11:27.340Z,15.30
2023-05-07T20:14:17.565Z,15.20
2023-05-07T20:17:05.367Z,15.30
2023-05-07T20:19:56.978Z,15.20
2023-05-07T20:22:45.404Z,15.10
2023-05-07T20:25:39.945Z,15.10
2023-05-07T20:28:28.051Z,15.10
2023-05-07T20:31:16.326Z,15.20
2023-05-07T20:34:05.691Z,15.30
2023-05-07T20:36:53.648Z,15.10
2023-05-07T20:39:44.865Z,15.20
2023-05-07T20:42:34.343Z,15.10
2023-05-07T20:45:22.767Z,14.70
2023-05-07T20:48:10.536Z,15.10
2023-05-07T20:50:58.716Z,15.00
2023-05-07T20:53:48.066Z,15.10
2023-05-07T20:56:35.623Z,15.10
2023-05-07T20:59:25.133Z,13.20
2023-05-07T21:02:13.124Z,15.10
2023-05-07T21:05:01.186Z,15.00
2023-05-07T21:07:49.600Z,15.00
2023-05-07T21:10:38.834Z,15.00
2023-05-07T21:13:26.956Z,16.50
2023-05-07T21:16:16.991Z,15.10
2023-05-07T21:19:05.068Z,15.00
2023-05-07T21:21:54.102Z,15.00
2023-05-07T21:24:42.452Z,15.00
2023-05-07T21:27:30.106Z,15.00
2023-05-07T21:30:18.752Z,15.00
2023-05-07T21:33:08.817Z,15.00
2023-05-07T21:35:57.164Z,14.90
2023-05-07T21:38:45.110Z,15.00
2023-05-07T21:41:33.271Z,15.00
2023-05-07T21:44:21.185Z,15.00
2023-05-07T21:47:10.035Z,12.40
2023-05-07T21:50:02.357Z,15.00
2023-05-07T21:52:50.876Z,15.10
2023-05-07T21:55:38.376Z,14.90
2023-05-07T21:58:26.424Z,15.40
2023-05-07T22:01:14.735Z,14.80
2023-05-07T22:04:03.290Z,14.90
2023-05-07T22:06:55.648Z,14.80
2023-05-07T22:09:43.388Z,14.80
2023-05-07T22:12:30.992Z,14.70
2023-05-07T22:15:18.497Z,16.40
2023-05-07T22:18:07.331Z,14.60
2023-05-07T22:20:55.056Z,14.70
2023-05-07T22:23:44.297Z,14.50
2023-05-07T22:26:32.968Z,14.60
2023-05-07T22:29:21.497Z,14.50
2023-05-07T22:32:12.459Z,14.50
2023-05-07T22:35:00.820Z,14.50
2023-05-07T22:37:48.543Z,14.40
2023-05-07T22:40:38.206Z,14.30
2023-05-07T22:43:26.153Z,15.20
2023-05-07T22:46:13.819Z,14.30
2023-05-07T22:49:02.035Z,14.30
2023-05-07T22:51:49.701Z,14.30
2023-05-07T22:54:37.848Z,14.30
2023-05-07T22:57:26.985Z,14.30
2023-05-07T23:00:15.563Z,14.30
2023-05-07T23:03:03.764Z,14.20
2023-05-07T23:05:51.992Z,14.10
2023-05-07T23:08:39.728Z,14.10
2023-05-07T23:11:27.742Z,14.00
2023-05-07T23:14:17.518Z,14.10
2023-05-07T23:17:05.839Z,14.10
2023-05-07T23:19:53.778Z,14.10
2023-05-07T23:22:42.567Z,14.00
2023-05-07T23:25:30.754Z,14.00
2023-05-07T23:28:18.426Z,14.30
2023-05-07T23:31:09.465Z,13.90
2023-05-07T23:33:57.277Z,14.20
2023-05-07T23:36:44.717Z,14.00
2023-05-07T23:39:32.107Z,14.10
2023-05-07T23:42:20.273Z,14.10
2023-05-07T23:45:08.297Z,13.00
2023-05-07T23:47:57.536Z,14.10
2023-05-07T23:50:45.509Z,14.10
2023-05-07T23:53:33.488Z,14.00
2023-05-07T23:56:22.081Z,13.90
2023-05-07T23:59:10.798Z,14.00
